Time;durP1;ratioP1;P1;durP2;ratioP2;P2;SDS_P1;SDS_P2;PMS_P1;PMS_P2;Temp;Humidity;BMP_temperature;BMP_pressure;BME280_temperature;BME280_humidity;BME280_pressure;Samples;Min_cycle;Max_cycle;Signal;HPM_P1;HPM_P2
2022/10/02 00:00:35;;;;;;;9.88;2.95;;;;;;;16.83;100.00;99832.34;5040495;28;20187;-75
2022/10/02 00:03:15;;;;;;;10.30;3.47;;;;;;;17.46;100.00;99928.19;5025596;28;20049;-76
2022/10/02 00:05:45;;;;;;;9.63;3.25;;;;;;;16.91;100.00;99818.81;5029765;28;20079;-77
2022/10/02 00:08:18;;;;;;;10.43;3.00;;;;;;;16.74;100.00;99792.91;5029639;28;20034;-75
2022/10/02 00:11:02;;;;;;;10.65;3.35;;;;;;;17.58;100.00;99924.22;5028973;28;20033;-77
2022/10/02 00:13:41;;;;;;;11.05;3.72;;;;;;;16.95;100.00;99796.59;5022123;28;20031;-76
2022/10/02 00:16:18;;;;;;;7.95;2.72;;;;;;;16.81;100.00;99782.94;5029552;28;20041;-76
2022/10/02 00:18:45;;;;;;;10.73;3.65;;;;;;;16.92;100.00;99820.53;5032563;28;20045;-75
2022/10/02 00:21:14;;;;;;;10.90;3.30;;;;;;;17.55;100.00;99915.53;5029204;28;20044;-77
2022/10/02 00:23:45;;;;;;;9.35;3.20;;;;;;;16.60;100.00;99753.66;5031107;28;20059;-76
2022/10/02 00:26:29;;;;;;;11.57;2.97;;;;;;;17.49;100.00;99911.31;5018924;28;20117;-77
2022/10/02 00:29:01;;;;;;;14.73;4.30;;;;;;;17.48;100.00;99904.25;5032573;28;20049;-76
2022/10/02 00:31:48;;;;;;;5.68;2.60;;;;;;;17.44;100.00;99874.34;5023876;28;20053;-77
2022/10/02 00:34:28;;;;;;;7.93;2.92;;;;;;;17.53;100.00;99886.38;5006692;28;20050;-76
2022/10/02 00:37:05;;;;;;;19.98;2.90;;;;;;;17.56;100.00;99881.00;5008682;28;20057;-76
2022/10/02 00:39:37;;;;;;;10.02;3.70;;;;;;;17.45;100.00;99867.25;5020470;28;20037;-78
2022/10/02 00:42:29;;;;;;;12.40;3.20;;;;;;;17.62;100.00;99848.03;5003730;28;20054;-76
2022/10/02 00:45:21;;;;;;;9.90;3.13;;;;;;;17.47;100.00;99850.34;5001481;28;20133;-78
2022/10/02 00:48:23;;;;;;;6.75;2.83;;;;;;;17.35;100.00;99824.28;4990097;28;20100;-79
2022/10/02 00:51:10;;;;;;;13.48;4.40;;;;;;;16.60;100.00;99692.72;5007946;28;20046;-76
2022/10/02 00:53:52;;;;;;;10.63;3.47;;;;;;;17.37;100.00;99809.19;5004258;28;20057;-76
2022/10/02 00:56:38;;;;;;;10.02;2.95;;;;;;;16.96;100.00;99753.25;5008289;28;20034;-79
2022/10/02 00:59:32;;;;;;;10.65;3.42;;;;;;;17.57;100.00;99847.34;4997481;28;20042;-76
2022/10/02 01:02:09;;;;;;;14.25;3.60;;;;;;;17.37;100.00;99813.59;4993309;28;20073;-77
2022/10/02 01:04:39;;;;;;;9.32;3.70;;;;;;;17.63;100.00;99849.75;5007938;28;20031;-75
2022/10/02 01:07:08;;;;;;;8.43;3.40;;;;;;;17.36;100.00;99819.84;5006500;28;20040;-77
2022/10/02 01:09:33;;;;;;;8.32;2.97;;;;;;;16.76;100.00;99708.03;5000242;28;20117;-77
2022/10/02 01:11:59;;;;;;;13.82;4.00;;;;;;;17.23;100.00;99827.38;5029328;28;20482;-76
2022/10/02 01:14:36;;;;;;;11.95;4.75;;;;;;;16.23;100.00;99641.09;5007417;28;20104;-75
2022/10/02 01:17:04;;;;;;;12.65;4.43;;;;;;;17.30;100.00;99797.94;5006640;28;20038;-77
2022/10/02 01:19:38;;;;;;;12.80;3.53;;;;;;;16.43;100.00;99663.31;5007682;28;20045;-76
2022/10/02 01:22:17;;;;;;;6.68;2.67;;;;;;;17.37;100.00;99825.09;5002131;28;20042;-77
2022/10/02 01:24:53;;;;;;;9.95;3.03;;;;;;;17.45;100.00;99830.13;5001315;28;21473;-76
2022/10/02 01:27:19;;;;;;;15.05;3.45;;;;;;;16.53;100.00;99680.63;4989707;28;20126;-77
2022/10/02 01:29:49;;;;;;;9.00;3.35;;;;;;;17.40;100.00;99827.63;5007236;28;20128;-77
2022/10/02 01:32:15;;;;;;;9.73;4.90;;;;;;;17.29;100.00;99798.00;5008382;28;20058;-77
2022/10/02 01:34:41;;;;;;;7.78;4.00;;;;;;;16.66;100.00;99699.56;5032535;28;20025;-78
2022/10/02 01:37:07;;;;;;;12.73;4.85;;;;;;;17.42;100.00;99825.78;5031507;28;20084;-78
2022/10/02 01:39:33;;;;;;;9.20;4.38;;;;;;;17.52;100.00;99837.78;5030783;28;20384;-77
2022/10/02 01:41:59;;;;;;;11.98;4.28;;;;;;;17.44;100.00;99854.88;5037035;28;20053;-77
2022/10/02 01:44:25;;;;;;;8.75;4.07;;;;;;;16.59;100.00;99698.06;5027449;28;20037;-77
2022/10/02 01:47:02;;;;;;;11.55;4.32;;;;;;;17.38;100.00;99848.03;5026990;28;20115;-76
2022/10/02 01:49:56;;;;;;;13.45;4.00;;;;;;;17.50;100.00;99867.94;5027812;28;20072;-78
2022/10/02 01:52:22;;;;;;;12.48;4.72;;;;;;;17.54;100.00;99887.28;5016147;28;20076;-76
2022/10/02 01:54:56;;;;;;;7.22;4.18;;;;;;;16.61;100.00;99728.00;5031452;28;20049;-78
2022/10/02 01:57:37;;;;;;;9.65;4.75;;;;;;;17.44;100.00;99871.69;5044126;28;20150;-78
2022/10/02 02:00:17;;;;;;;12.02;5.30;;;;;;;17.25;100.00;99841.44;5034297;28;20566;-78
2022/10/02 02:02:45;;;;;;;12.38;6.15;;;;;;;17.45;100.00;99889.31;5019397;28;20037;-79
2022/10/02 02:05:35;;;;;;;24.52;7.15;;;;;;;17.42;100.00;99893.88;5036440;28;20037;-77
2022/10/02 02:08:27;;;;;;;26.50;8.15;;;;;;;17.36;100.00;99855.19;5024597;28;20063;-77
2022/10/02 02:11:03;;;;;;;22.25;8.27;;;;;;;17.50;100.00;99868.78;5044610;28;20079;-78
2022/10/02 02:13:44;;;;;;;16.98;8.38;;;;;;;17.47;100.00;99863.63;5045431;28;20107;-75
2022/10/02 02:16:22;;;;;;;17.92;7.82;;;;;;;17.45;100.00;99867.25;4998805;28;20057;-75
2022/10/02 02:18:53;;;;;;;18.35;9.25;;;;;;;17.43;100.00;99871.75;5019143;28;20132;-77
2022/10/02 02:21:26;;;;;;;14.43;9.43;;;;;;;17.28;100.00;99842.22;5028577;28;20085;-78
2022/10/02 02:23:55;;;;;;;18.02;11.50;;;;;;;16.48;100.00;99694.94;5028461;28;20299;-77
2022/10/02 02:26:24;;;;;;;13.75;10.82;;;;;;;16.55;100.00;99709.69;5029680;28;20057;-78
2022/10/02 02:28:54;;;;;;;14.95;11.23;;;;;;;16.51;100.00;99706.28;5029224;28;20087;-79
2022/10/02 02:31:27;;;;;;;20.95;11.82;;;;;;;16.47;100.00;99712.63;5021408;28;20022;-78
2022/10/02 02:34:00;;;;;;;30.33;13.48;;;;;;;16.76;100.00;99745.13;5028517;28;20060;-78
2022/10/02 02:36:34;;;;;;;32.25;14.57;;;;;;;17.25;100.00;99837.00;5019365;28;20088;-78
2022/10/02 02:39:06;;;;;;;16.88;13.00;;;;;;;17.44;100.00;99844.28;5022630;28;20045;-76
2022/10/02 02:41:39;;;;;;;18.90;14.50;;;;;;;17.41;100.00;99831.16;5048632;28;20128;-76
2022/10/02 02:44:31;;;;;;;23.52;14.23;;;;;;;16.60;100.00;99698.03;5036674;28;20049;-79
2022/10/02 02:47:10;;;;;;;17.85;12.73;;;;;;;16.52;100.00;99691.25;5017996;28;20128;-78
2022/10/02 02:49:58;;;;;;;15.32;12.30;;;;;;;17.33;100.00;99835.88;5047299;28;20103;-77
2022/10/02 02:52:34;;;;;;;16.30;12.52;;;;;;;17.38;100.00;99824.16;5020245;28;20151;-77
2022/10/02 02:55:11;;;;;;;17.17;12.68;;;;;;;17.38;100.00;99831.28;5031297;28;20049;-77
2022/10/02 02:57:44;;;;;;;18.77;11.80;;;;;;;16.47;100.00;99691.44;5029332;28;20081;-77
2022/10/02 03:00:14;;;;;;;14.40;11.98;;;;;;;16.45;100.00;99710.00;5007304;28;20501;-76
2022/10/02 03:02:40;;;;;;;15.73;11.45;;;;;;;17.29;100.00;99841.28;5027477;28;20104;-77
2022/10/02 03:05:17;;;;;;;19.85;12.60;;;;;;;16.87;100.00;99749.16;5016526;28;20422;-79
2022/10/02 03:08:00;;;;;;;17.70;11.43;;;;;;;16.33;100.00;99641.59;5037666;28;22024;-78
2022/10/02 03:10:38;;;;;;;24.88;10.65;;;;;;;17.23;100.00;99820.31;5035656;28;20136;-78
2022/10/02 03:13:19;;;;;;;12.35;9.20;;;;;;;17.13;100.00;99810.09;5029260;28;20056;-76
2022/10/02 03:16:23;;;;;;;14.63;10.90;;;;;;;17.14;100.00;99831.25;5016736;28;20068;-79
2022/10/02 03:19:19;;;;;;;10.95;9.43;;;;;;;16.33;100.00;99688.41;4988841;28;20045;-78
2022/10/02 03:21:53;;;;;;;13.77;9.30;;;;;;;17.11;100.00;99841.09;4981484;28;20104;-78
2022/10/02 03:24:37;;;;;;;13.38;9.25;;;;;;;17.15;100.00;99837.41;5010688;28;20057;-76
2022/10/02 03:27:16;;;;;;;13.98;9.00;;;;;;;16.21;100.00;99709.09;5034195;28;20704;-77
2022/10/02 03:29:55;;;;;;;15.88;8.43;;;;;;;16.87;100.00;99838.41;5026431;28;20060;-78
2022/10/02 03:32:23;;;;;;;12.00;8.45;;;;;;;16.07;100.00;99695.47;5022006;28;20048;-77
2022/10/02 03:34:48;;;;;;;16.17;7.70;;;;;;;16.94;100.00;99841.69;5044065;28;20291;-78
2022/10/02 03:37:14;;;;;;;11.88;8.05;;;;;;;15.98;100.00;99706.38;5040336;28;20464;-78
2022/10/02 03:39:42;;;;;;;15.30;8.90;;;;;;;16.12;100.00;99741.16;5026508;28;20053;-77
2022/10/02 03:42:12;;;;;;;11.73;7.93;;;;;;;15.96;100.00;99732.00;5017758;28;20050;-78
2022/10/02 03:44:37;;;;;;;11.38;7.30;;;;;;;16.50;100.00;99812.28;5034189;28;20095;-78
2022/10/02 03:47:03;;;;;;;11.10;7.28;;;;;;;16.53;100.00;99852.78;5028122;28;20531;-79
2022/10/02 03:49:28;;;;;;;14.18;7.15;;;;;;;15.74;100.00;99727.44;5048048;28;20028;-79
2022/10/02 03:51:54;;;;;;;14.52;7.68;;;;;;;16.38;100.00;99842.69;5021123;28;20071;-79
2022/10/02 03:54:21;;;;;;;10.65;7.05;;;;;;;15.84;100.00;99746.50;5036790;28;20033;-79
2022/10/02 03:56:57;;;;;;;13.80;7.80;;;;;;;16.12;100.00;99775.56;5021949;28;20084;-78
2022/10/02 03:59:48;;;;;;;11.25;8.23;;;;;;;16.35;100.00;99851.59;5036960;28;20036;-78
2022/10/02 04:02:36;;;;;;;8.45;6.72;;;;;;;15.45;100.00;99720.38;5014840;28;20045;-78
2022/10/02 04:05:19;;;;;;;17.98;6.80;;;;;;;16.16;100.00;99826.66;5032731;28;20061;-77
2022/10/02 04:07:48;;;;;;;11.85;6.88;;;;;;;16.23;100.00;99852.00;5036742;28;20028;-77
2022/10/02 04:10:30;;;;;;;13.25;6.72;;;;;;;15.54;100.00;99737.72;5028067;28;20029;-78
2022/10/02 04:13:15;;;;;;;11.10;7.13;;;;;;;16.07;100.00;99841.03;5023734;28;20949;-77
2022/10/02 04:15:41;;;;;;;14.10;7.13;;;;;;;15.95;100.00;99863.47;5028304;28;20401;-78
2022/10/02 04:18:18;;;;;;;8.30;7.05;;;;;;;15.86;100.00;99823.19;5026576;28;20048;-79
2022/10/02 04:20:46;;;;;;;21.35;8.05;;;;;;;15.87;100.00;99875.19;5018028;28;20401;-78
2022/10/02 04:23:36;;;;;;;6.40;5.28;;;;;;;15.83;100.00;99859.41;5040051;28;20104;-78
2022/10/02 04:26:31;;;;;;;9.73;6.32;;;;;;;15.92;100.00;99871.50;5019600;28;20461;-80
2022/10/02 04:29:04;;;;;;;12.73;6.63;;;;;;;15.04;100.00;99719.84;5035743;28;20384;-78
2022/10/02 04:31:29;;;;;;;11.67;6.43;;;;;;;15.75;100.00;99861.41;5032854;28;20029;-79
2022/10/02 04:34:00;;;;;;;8.27;6.03;;;;;;;15.09;100.00;99735.56;5006616;28;20062;-77
2022/10/02 04:36:44;;;;;;;10.63;7.25;;;;;;;15.60;100.00;99864.50;5012865;28;20498;-79
2022/10/02 04:39:39;;;;;;;8.90;6.47;;;;;;;15.74;100.00;99870.28;5007652;28;20044;-76
2022/10/02 04:42:23;;;;;;;8.70;6.55;;;;;;;15.72;100.00;99876.53;4998421;28;20038;-77
2022/10/02 04:44:48;;;;;;;9.93;6.68;;;;;;;15.74;100.00;99880.00;5008018;28;20049;-79
2022/10/02 04:47:23;;;;;;;22.92;7.53;;;;;;;15.68;100.00;99861.63;5023614;28;20465;-79
2022/10/02 04:49:51;;;;;;;11.77;6.97;;;;;;;15.62;100.00;99855.59;5017817;28;20026;-77
2022/10/02 04:52:35;;;;;;;8.57;6.07;;;;;;;15.51;100.00;99872.69;4998453;28;20142;-77
2022/10/02 04:55:31;;;;;;;10.98;7.03;;;;;;;15.54;100.00;99869.94;5008727;28;20048;-76
2022/10/02 04:58:24;;;;;;;12.18;7.90;;;;;;;15.67;100.00;99876.63;5005385;28;20141;-77
2022/10/02 05:01:19;;;;;;;10.57;7.60;;;;;;;15.62;100.00;99882.03;5008806;28;20398;-78
2022/10/02 05:04:06;;;;;;;9.60;7.82;;;;;;;15.63;100.00;99878.47;4986058;28;20140;-79
2022/10/02 05:06:53;;;;;;;13.18;6.45;;;;;;;15.55;100.00;99877.00;5009469;28;20034;-77
2022/10/02 05:09:30;;;;;;;11.20;8.88;;;;;;;14.98;100.00;99781.69;5012574;28;20037;-78
2022/10/02 05:12:07;;;;;;;12.68;6.35;;;;;;;15.72;100.00;99884.47;4999362;28;20060;-77
2022/10/02 05:14:48;;;;;;;13.30;7.00;;;;;;;15.62;100.00;99874.09;4990070;28;20508;-79
2022/10/02 05:17:51;;;;;;;12.23;6.60;;;;;;;15.74;100.00;99901.16;5016031;28;20029;-79
2022/10/02 05:20:47;;;;;;;13.70;7.13;;;;;;;15.63;100.00;99896.13;5005470;28;20078;-77
2022/10/02 05:23:16;;;;;;;11.55;7.13;;;;;;;15.69;100.00;99914.47;5003700;28;20041;-77
2022/10/02 05:26:20;;;;;;;10.35;7.22;;;;;;;15.73;100.00;99913.53;5000007;28;20050;-77
2022/10/02 05:28:55;;;;;;;11.48;7.82;;;;;;;15.72;100.00;99909.13;4980651;28;20108;-77
2022/10/02 05:31:33;;;;;;;7.63;6.30;;;;;;;15.79;100.00;99913.31;5009682;28;20117;-77
2022/10/02 05:34:42;;;;;;;12.38;7.10;;;;;;;15.81;100.00;99918.56;5020266;28;20061;-77
2022/10/02 05:37:26;;;;;;;12.80;7.53;;;;;;;15.68;100.00;99888.91;5001732;28;20053;-78
2022/10/02 05:40:22;;;;;;;14.63;7.18;;;;;;;15.69;100.00;99893.31;5045891;28;20040;-77
2022/10/02 05:42:57;;;;;;;10.40;6.90;;;;;;;15.74;100.00;99911.72;5027163;28;20057;-78
2022/10/02 05:45:32;;;;;;;11.52;7.07;;;;;;;15.91;100.00;99943.84;5027187;28;20639;-80
2022/10/02 05:48:12;;;;;;;8.48;6.63;;;;;;;15.71;100.00;99901.22;5016370;28;20038;-77
2022/10/02 05:50:39;;;;;;;8.50;6.57;;;;;;;15.15;100.00;99799.69;5025254;28;20041;-78
2022/10/02 05:53:17;;;;;;;9.90;6.53;;;;;;;15.39;100.00;99824.53;5027210;28;20119;-78
2022/10/02 05:56:22;;;;;;;11.63;7.55;;;;;;;15.89;100.00;99895.38;5023087;28;20069;-77
2022/10/02 05:58:57;;;;;;;9.57;6.28;;;;;;;15.48;100.00;99819.91;5038751;28;20151;-78
2022/10/02 06:01:35;;;;;;;8.68;6.05;;;;;;;16.14;100.00;99929.06;5022766;28;20037;-77
2022/10/02 06:04:06;;;;;;;8.27;5.57;;;;;;;16.51;100.00;99954.41;5015296;28;20087;-77
2022/10/02 06:06:38;;;;;;;10.60;6.28;;;;;;;15.82;100.00;99831.19;5044862;28;20124;-78
2022/10/02 06:09:27;;;;;;;8.35;5.53;;;;;;;15.88;100.00;99827.53;5040526;28;20482;-76
2022/10/02 06:12:02;;;;;;;12.05;5.43;;;;;;;16.81;100.00;99966.69;5002999;28;20044;-77
2022/10/02 06:14:33;;;;;;;14.57;6.55;;;;;;;16.97;100.00;99953.75;5031176;28;20067;-75
2022/10/02 06:17:09;;;;;;;17.13;4.95;;;;;;;16.97;100.00;99956.41;5024175;28;20037;-77
2022/10/02 06:19:52;;;;;;;8.50;5.82;;;;;;;17.07;100.00;99957.84;5025618;28;20039;-79
2022/10/02 06:22:22;;;;;;;8.40;5.10;;;;;;;17.24;100.00;99967.88;5030407;28;20037;-76
2022/10/02 06:24:55;;;;;;;12.13;5.93;;;;;;;17.25;99.87;99972.25;5034320;28;20049;-77
2022/10/02 06:27:42;;;;;;;7.85;4.95;;;;;;;17.34;98.42;99976.38;5016659;28;20060;-77
2022/10/02 06:30:11;;;;;;;10.70;5.90;;;;;;;17.37;99.28;99956.81;5013199;28;20049;-76
2022/10/02 06:33:03;;;;;;;12.68;4.72;;;;;;;17.39;98.01;99955.00;5025446;28;20042;-78
2022/10/02 06:36:07;;;;;;;8.70;5.28;;;;;;;17.56;98.79;99981.81;5030280;28;20038;-78
2022/10/02 06:38:39;;;;;;;8.02;4.43;;;;;;;17.52;97.36;99989.00;5007055;28;20393;-77
2022/10/02 06:41:24;;;;;;;6.22;3.80;;;;;;;16.69;96.74;99853.09;5032544;28;20050;-77
2022/10/02 06:44:22;;;;;;;6.22;4.13;;;;;;;17.51;95.58;99997.88;5029784;28;20121;-74
2022/10/02 06:47:05;;;;;;;7.15;3.60;;;;;;;17.43;93.76;99997.28;5034430;28;20047;-78
2022/10/02 06:49:45;;;;;;;7.20;4.35;;;;;;;16.71;94.66;99856.56;5018946;28;20495;-78
2022/10/02 06:52:36;;;;;;;4.80;3.58;;;;;;;17.25;93.17;99943.06;5018448;28;20056;-76
2022/10/02 06:55:25;;;;;;;7.55;3.85;;;;;;;17.52;92.73;99993.44;5027572;28;20053;-78
2022/10/02 06:57:50;;;;;;;9.07;3.20;;;;;;;17.57;92.88;100015.34;5023864;28;20579;-76
2022/10/02 07:00:20;;;;;;;6.18;2.67;;;;;;;17.58;90.79;99989.69;5020538;28;20136;-78
2022/10/02 07:03:23;;;;;;;7.15;3.53;;;;;;;17.74;90.48;100012.09;5012469;28;20045;-76
2022/10/02 07:06:00;;;;;;;10.50;3.47;;;;;;;17.84;90.11;100000.28;5000445;28;20041;-78
2022/10/02 07:08:44;;;;;;;7.55;3.75;;;;;;;17.89;90.72;100006.28;5015472;28;20029;-78
2022/10/02 07:11:41;;;;;;;5.85;3.17;;;;;;;18.07;88.23;100012.69;5025591;28;20052;-77
2022/10/02 07:14:26;;;;;;;4.40;3.10;;;;;;;18.27;86.60;100014.59;5031277;28;20038;-77
2022/10/02 07:17:10;;;;;;;7.88;3.90;;;;;;;18.42;85.93;100022.91;5041392;28;20021;-77
2022/10/02 07:20:03;;;;;;;7.55;2.53;;;;;;;18.44;86.11;100013.94;5036643;28;20117;-76
2022/10/02 07:22:55;;;;;;;4.30;2.60;;;;;;;18.64;83.88;100030.91;5037735;28;20037;-77
2022/10/02 07:25:35;;;;;;;7.53;2.40;;;;;;;18.88;80.35;100032.59;5031967;28;20052;-76
2022/10/02 07:28:26;;;;;;;11.05;2.75;;;;;;;18.94;80.66;100043.00;5023849;28;20132;-77
2022/10/02 07:31:04;;;;;;;8.52;2.78;;;;;;;18.87;80.77;100044.19;5018091;28;20053;-78
2022/10/02 07:33:52;;;;;;;4.68;2.35;;;;;;;18.90;81.71;100043.19;5015433;28;20567;-77
2022/10/02 07:36:29;;;;;;;8.48;3.15;;;;;;;18.90;79.56;100046.72;5029516;28;20819;-77
2022/10/02 07:39:18;;;;;;;7.97;2.30;;;;;;;18.80;78.07;100061.31;5047132;28;20045;-77
2022/10/02 07:42:02;;;;;;;4.13;2.00;;;;;;;18.69;75.42;100011.19;5034593;28;20042;-78
2022/10/02 07:45:01;;;;;;;2.30;1.30;;;;;;;18.82;78.08;100055.91;5048297;28;20547;-76
2022/10/02 07:47:38;;;;;;;15.13;2.58;;;;;;;18.94;76.91;100060.72;5017581;28;20393;-77
2022/10/02 07:50:27;;;;;;;5.50;1.65;;;;;;;18.28;75.93;99938.44;5027294;28;20049;-77
2022/10/02 07:53:25;;;;;;;3.28;1.73;;;;;;;18.86;76.07;100030.94;5009653;28;20373;-78
2022/10/02 07:55:52;;;;;;;6.63;3.33;;;;;;;19.07;76.19;100064.63;5008730;28;20057;-77
2022/10/02 07:58:35;;;;;;;19.77;5.25;;;;;;;18.60;72.87;99984.13;5030939;28;20033;-76
2022/10/02 08:01:22;;;;;;;3.67;2.00;;;;;;;19.12;71.57;100070.63;5026853;28;20046;-77
2022/10/02 08:03:54;;;;;;;4.35;1.88;;;;;;;18.46;72.09;99952.78;4995921;28;20045;-74
2022/10/02 08:06:20;;;;;;;6.27;2.50;;;;;;;18.67;72.97;99975.81;5016831;28;20079;-76
2022/10/02 08:08:52;;;;;;;3.03;1.58;;;;;;;19.28;71.52;100070.00;5008551;28;20057;-76
2022/10/02 08:11:46;;;;;;;2.70;1.67;;;;;;;19.30;71.33;100084.97;5028432;28;20128;-77
2022/10/02 08:14:27;;;;;;;;;;;;;;;19.56;66.91;100083.88;5044825;28;20048;-77
2022/10/02 08:16:56;;;;;;;4.13;1.15;;;;;;;18.87;62.49;99961.78;5045962;28;20366;-78
2022/10/02 08:19:44;;;;;;;9.15;2.70;;;;;;;18.89;62.67;99954.56;5044053;28;20133;-77
2022/10/02 08:22:21;;;;;;;0.98;0.40;;;;;;;19.62;58.15;100085.44;5039747;28;20104;-78
2022/10/02 08:24:53;;;;;;;1.65;0.52;;;;;;;19.16;56.03;99986.28;5025192;28;20128;-76
2022/10/02 08:27:45;;;;;;;2.47;0.50;;;;;;;19.51;57.18;100037.13;5040957;28;20040;-77
2022/10/02 08:30:13;;;;;;;3.05;0.52;;;;;;;19.86;55.60;100072.03;5027204;28;20620;-77
2022/10/02 08:32:38;;;;;;;3.83;1.98;;;;;;;20.02;54.80;100086.41;5020824;28;20043;-76
2022/10/02 08:35:11;;;;;;;1.65;0.60;;;;;;;19.63;52.12;99998.47;5025022;28;20049;-79
2022/10/02 08:37:41;;;;;;;6.50;0.50;;;;;;;20.07;50.92;100100.38;5037968;28;20053;-77
2022/10/02 08:40:29;;;;;;;1.38;0.60;;;;;;;20.13;50.92;100104.56;5049366;28;20476;-76
2022/10/02 08:43:21;;;;;;;2.08;0.45;;;;;;;20.30;49.75;100101.13;5032594;28;20124;-76
2022/10/02 08:46:09;;;;;;;1.35;0.50;;;;;;;20.30;49.52;100103.78;5034916;28;20060;-76
2022/10/02 08:48:54;;;;;;;3.85;0.73;;;;;;;20.29;49.60;100096.75;5029265;28;20053;-76
2022/10/02 08:51:22;;;;;;;3.13;0.60;;;;;;;20.31;48.37;100087.75;5023547;28;20041;-75
2022/10/02 08:54:14;;;;;;;8.02;0.47;;;;;;;20.40;50.70;100094.47;5027110;28;20143;-76
2022/10/02 08:56:58;;;;;;;1.55;0.55;;;;;;;20.35;48.30;100093.81;5039890;28;20577;-77
2022/10/02 09:00:01;;;;;;;1.23;0.47;;;;;;;20.20;47.51;100058.91;5043868;28;20133;-76
2022/10/02 09:03:18;;;;;;;4.97;0.63;;;;;;;20.53;45.05;100095.59;5019496;28;20120;-75
2022/10/02 09:05:46;;;;;;;2.83;0.57;;;;;;;20.67;46.72;100097.66;4975576;28;20052;-77
2022/10/02 09:08:51;;;;;;;2.80;0.73;;;;;;;20.66;45.98;100099.47;4751610;27;8361917;-76
2022/10/02 09:11:38;;;;;;;1.73;0.60;;;;;;;20.71;46.69;100096.59;4990376;28;20054;-77
2022/10/02 09:14:09;;;;;;;6.38;0.80;;;;;;;20.74;45.71;100100.91;5004196;28;20046;-77
2022/10/02 09:17:11;;;;;;;0.73;0.40;;;;;;;20.89;45.74;100102.00;5004042;28;20097;-77
2022/10/02 09:19:48;;;;;;;3.58;0.68;;;;;;;20.84;47.22;100105.75;4995573;28;20049;-77
2022/10/02 09:22:44;;;;;;;2.58;0.90;;;;;;;20.84;46.49;100100.41;5002621;28;20053;-76
2022/10/02 09:25:52;;;;;;;3.22;0.68;;;;;;;21.01;46.43;100102.28;4999779;28;20034;-77
2022/10/02 09:28:59;;;;;;;1.23;0.60;;;;;;;20.16;44.88;99960.56;4957107;28;20073;-77
2022/10/02 09:31:49;;;;;;;11.27;1.42;;;;;;;21.03;44.61;100096.88;4975136;28;20108;-78
2022/10/02 09:34:15;;;;;;;0.93;0.28;;;;;;;21.10;44.30;100100.09;4997561;28;20046;-76
2022/10/02 09:37:12;;;;;;;1.75;0.40;;;;;;;20.56;44.39;99998.69;4991158;28;20636;-78
2022/10/02 09:40:27;;;;;;;0.85;0.50;;;;;;;21.23;45.40;100099.41;4994399;28;20046;-76
2022/10/02 09:43:30;;;;;;;7.82;2.00;;;;;;;21.34;43.14;100116.72;5001851;28;20196;-77
2022/10/02 09:46:51;;;;;;;1.80;0.77;;;;;;;21.32;43.16;100108.78;4992953;28;20137;-75
2022/10/02 09:49:32;;;;;;;3.72;1.20;;;;;;;21.34;46.53;100112.22;4999871;28;20038;-76
2022/10/02 09:52:34;;;;;;;9.20;0.63;;;;;;;21.28;43.32;100120.53;5001501;28;20041;-77
2022/10/02 09:55:34;;;;;;;3.65;1.05;;;;;;;21.37;43.62;100113.88;4992438;28;20149;-77
2022/10/02 09:58:08;;;;;;;2.10;1.13;;;;;;;;;;5002823;28;20068;-77
2022/10/02 10:00:43;;;;;;;2.55;0.75;;;;;;;21.62;42.27;100116.22;4998738;28;20087;-76
2022/10/02 10:03:50;;;;;;;5.78;3.03;;;;;;;21.59;42.06;100125.25;4977749;28;20145;-78
2022/10/02 10:06:57;;;;;;;9.98;3.58;;;;;;;21.58;44.04;100115.50;4960293;28;20097;-76
2022/10/02 10:09:48;;;;;;;6.15;3.35;;;;;;;21.04;42.97;100014.06;4987339;28;20053;-77
2022/10/02 10:12:32;;;;;;;5.70;2.15;;;;;;;21.71;42.67;100116.63;5019901;28;20509;-75
2022/10/02 10:15:28;;;;;;;2.20;0.82;;;;;;;21.78;45.75;100119.84;5020668;28;20096;-76
2022/10/02 10:18:12;;;;;;;1.40;0.77;;;;;;;21.92;41.58;100121.81;5008673;28;20042;-75
2022/10/02 10:21:12;;;;;;;2.97;1.20;;;;;;;22.02;41.88;100109.69;5005508;28;20095;-78
2022/10/02 10:23:53;;;;;;;3.88;1.42;;;;;;;22.32;40.14;100120.59;5004524;28;20054;-75
2022/10/02 10:26:19;;;;;;;1.75;0.50;;;;;;;22.40;40.05;100135.38;4997478;28;20042;-78
2022/10/02 10:29:00;;;;;;;1.65;0.52;;;;;;;22.43;41.38;100128.06;5006678;28;20627;-78
2022/10/02 10:31:41;;;;;;;1.48;0.60;;;;;;;22.56;41.06;100130.94;5006239;28;20026;-76
2022/10/02 10:34:28;;;;;;;1.08;0.60;;;;;;;22.58;40.77;100129.03;5004166;28;20156;-79
2022/10/02 10:40:08;;;;;;;2.03;0.85;;;;;;;22.67;42.82;100107.13;5001963;28;20064;-78
2022/10/02 10:43:03;;;;;;;2.38;0.90;;;;;;;22.84;38.91;100127.59;5009394;28;20153;-79
2022/10/02 10:45:47;;;;;;;2.53;0.95;;;;;;;22.39;41.79;100026.72;5005764;28;20056;-77
2022/10/02 10:48:28;;;;;;;1.70;0.80;;;;;;;22.62;38.26;100054.84;5007814;28;20046;-78
2022/10/02 10:51:18;;;;;;;2.33;1.13;;;;;;;23.04;38.52;100123.84;5007206;28;20046;-78
2022/10/02 10:53:52;;;;;;;1.98;0.80;;;;;;;22.92;39.38;100122.69;5007954;28;20076;-77
2022/10/02 10:57:12;;;;;;;1.80;0.90;;;;;;;23.03;38.84;100129.28;5008555;28;20052;-78
2022/10/02 10:59:52;;;;;;;3.53;1.02;;;;;;;22.87;37.53;100140.78;4946517;29;20094;-76
2022/10/02 11:02:42;;;;;;;3.45;1.70;;;;;;;22.76;38.17;100149.44;5003169;28;20052;-76
2022/10/02 11:05:46;;;;;;;2.28;0.90;;;;;;;22.94;37.71;100134.19;4994218;28;20050;-78
2022/10/02 11:08:21;;;;;;;2.90;0.95;;;;;;;22.99;38.43;100149.13;4958315;28;20168;-78
2022/10/02 11:11:06;;;;;;;1.67;0.70;;;;;;;22.97;39.82;100134.00;4995113;28;20060;-76
2022/10/02 11:13:42;;;;;;;1.60;0.88;;;;;;;22.72;40.15;100141.66;5003309;28;20034;-76
2022/10/02 11:16:42;;;;;;;1.70;0.50;;;;;;;22.93;39.94;100142.28;4999682;28;20038;-76
2022/10/02 11:19:34;;;;;;;1.13;0.73;;;;;;;22.64;39.21;100139.41;4996275;28;20053;-76
2022/10/02 11:22:12;;;;;;;3.40;1.05;;;;;;;22.69;40.29;100133.81;5006395;28;20076;-76
2022/10/02 11:24:52;;;;;;;4.80;0.95;;;;;;;22.80;40.06;100146.56;5008006;28;20050;-77
2022/10/02 11:27:24;;;;;;;1.70;0.60;;;;;;;22.88;37.83;100147.91;5000096;28;20107;-78
2022/10/02 11:30:18;;;;;;;3.17;0.73;;;;;;;22.61;38.49;100139.56;5003593;28;20053;-75
2022/10/02 11:32:55;;;;;;;8.77;1.60;;;;;;;22.88;38.33;100149.72;4993249;28;20057;-79
2022/10/02 11:35:27;;;;;;;4.72;0.63;;;;;;;22.82;37.46;100145.53;5008561;28;20115;-77
2022/10/02 11:37:55;;;;;;;1.58;0.57;;;;;;;23.06;36.55;100155.88;5005230;28;20080;-77
2022/10/02 11:40:40;;;;;;;6.45;0.98;;;;;;;22.50;37.56;100081.31;5007373;28;20044;-75
2022/10/02 11:43:17;;;;;;;2.65;1.05;;;;;;;22.91;37.66;100161.09;5007359;28;20053;-76
2022/10/02 11:46:18;;;;;;;2.15;0.88;;;;;;;22.57;38.35;100171.91;5007079;28;20113;-77
2022/10/02 11:49:19;;;;;;;2.38;1.25;;;;;;;22.58;38.96;100162.94;5005145;28;20057;-78
2022/10/02 11:52:19;;;;;;;1.30;0.50;;;;;;;22.94;37.79;100160.06;5006373;28;20042;-76
2022/10/02 11:55:03;;;;;;;2.22;0.28;;;;;;;22.72;36.88;100147.88;5006681;28;20091;-77
2022/10/02 11:57:52;;;;;;;1.55;0.65;;;;;;;22.02;39.47;100064.28;5002889;28;20490;-76
2022/10/02 12:00:46;;;;;;;0.98;0.55;;;;;;;22.43;38.87;100170.84;5000186;28;20130;-79
2022/10/02 12:03:35;;;;;;;3.65;0.70;;;;;;;21.71;39.78;100046.31;4995439;28;20091;-77
2022/10/02 12:06:14;;;;;;;1.30;0.68;;;;;;;22.33;38.41;100148.19;5007146;28;20041;-78
2022/10/02 12:09:16;;;;;;;1.15;0.88;;;;;;;22.68;39.42;100158.81;5023756;28;20037;-77
2022/10/02 12:11:54;;;;;;;3.20;0.93;;;;;;;22.71;39.64;100175.56;5022838;28;20120;-76
2022/10/02 12:14:33;;;;;;;1.10;0.47;;;;;;;22.59;36.45;100189.59;5024058;28;20054;-78
2022/10/02 12:17:17;;;;;;;5.13;1.02;;;;;;;21.96;36.44;100075.31;5018290;28;20049;-77
2022/10/02 12:26:57;;;;;;;4.72;0.60;;;;;;;22.68;35.75;100185.56;5025647;28;20065;-77
2022/10/02 12:29:08;;;;;;;1.93;0.80;;;;;;;22.25;35.82;100140.59;5016831;28;20164;-78
2022/10/02 12:31:53;;;;;;;0.98;0.47;;;;;;;22.20;35.10;100174.69;5020857;28;20330;-76
2022/10/02 12:34:31;;;;;;;3.30;0.93;;;;;;;22.27;35.15;100181.47;5017989;28;20046;-76
2022/10/02 12:37:38;;;;;;;3.03;0.90;;;;;;;22.30;35.24;100189.31;5015547;28;20121;-76